Time;durP1;ratioP1;P1;durP2;ratioP2;P2;SDS_P1;SDS_P2;PMS_P1;PMS_P2;Temp;Humidity;BMP_temperature;BMP_pressure;BME280_temperature;BME280_humidity;BME280_pressure;Samples;Min_cycle;Max_cycle;Signal;HPM_P1;HPM_P2
2023/12/03 00:01:00;;;;;;;26.17;19.75;;;;;;;2.44;100.00;101802.03;5269740;28;20036;-76
2023/12/03 00:03:32;;;;;;;26.63;19.98;;;;;;;2.42;100.00;101790.03;5268114;28;20044;-78
2023/12/03 00:06:04;;;;;;;25.30;18.67;;;;;;;2.50;100.00;101800.97;5267778;28;20029;-76
2023/12/03 00:08:37;;;;;;;26.45;18.92;;;;;;;2.54;100.00;101797.38;5248738;28;20045;-77
2023/12/03 00:11:09;;;;;;;25.65;19.10;;;;;;;2.47;100.00;101780.38;5267515;28;20025;-76
2023/12/03 00:13:40;;;;;;;26.95;20.27;;;;;;;2.58;100.00;101796.38;5269953;28;20056;-77
2023/12/03 00:16:12;;;;;;;29.13;19.73;;;;;;;2.61;100.00;101805.72;5267695;28;20040;-77
2023/12/03 00:18:44;;;;;;;27.02;18.98;;;;;;;2.61;100.00;101796.25;5258866;28;20033;-77
2023/12/03 00:21:16;;;;;;;28.02;19.15;;;;;;;2.62;100.00;101802.28;5260739;28;20397;-77
2023/12/03 00:23:48;;;;;;;27.08;19.15;;;;;;;2.62;100.00;101792.75;5275131;28;20037;-77
2023/12/03 00:26:20;;;;;;;25.70;18.98;;;;;;;2.68;100.00;101802.88;5246431;28;20041;-77
2023/12/03 00:28:52;;;;;;;25.90;19.23;;;;;;;2.72;100.00;101813.13;5261626;28;20501;-76
2023/12/03 00:31:24;;;;;;;27.48;19.23;;;;;;;2.71;100.00;101812.28;5263302;28;20046;-75
2023/12/03 00:33:56;;;;;;;24.27;18.70;;;;;;;2.73;100.00;101807.03;5267985;28;20033;-76
2023/12/03 00:36:27;;;;;;;24.33;18.52;;;;;;;2.76;100.00;101812.09;5262511;28;20029;-76
2023/12/03 00:38:59;;;;;;;24.05;17.83;;;;;;;2.78;100.00;101811.16;5267044;28;20047;-76
2023/12/03 00:41:31;;;;;;;23.15;18.35;;;;;;;2.80;100.00;101808.50;5264636;28;20045;-76
2023/12/03 00:44:04;;;;;;;24.65;17.83;;;;;;;2.77;100.00;101808.63;5262653;28;20036;-75
2023/12/03 00:46:36;;;;;;;21.97;17.00;;;;;;;2.78;100.00;101807.72;5267207;28;20258;-77
2023/12/03 00:49:08;;;;;;;23.08;17.55;;;;;;;2.77;100.00;101806.03;5242917;28;20039;-76
2023/12/03 00:51:39;;;;;;;22.63;18.15;;;;;;;2.80;100.00;101813.66;5263384;28;20028;-77
2023/12/03 00:54:11;;;;;;;22.00;17.63;;;;;;;2.68;100.00;101792.53;5244273;28;20049;-76
2023/12/03 00:56:43;;;;;;;23.38;17.42;;;;;;;2.80;100.00;101816.25;5263269;28;20102;-76
2023/12/03 00:59:15;;;;;;;23.23;17.40;;;;;;;2.74;100.00;101812.16;5269288;28;20032;-76
2023/12/03 01:01:47;;;;;;;23.88;18.08;;;;;;;2.81;100.00;101812.78;5265942;28;20893;-76
2023/12/03 01:04:19;;;;;;;21.40;17.30;;;;;;;2.82;100.00;101820.50;5243676;28;20043;-79
2023/12/03 01:06:51;;;;;;;24.30;19.08;;;;;;;2.77;100.00;101808.63;5264878;28;20025;-76
2023/12/03 01:09:23;;;;;;;24.05;18.70;;;;;;;2.79;100.00;101824.94;5265696;28;20035;-76
2023/12/03 01:11:56;;;;;;;24.38;17.95;;;;;;;2.77;100.00;101827.59;5265040;28;20035;-76
2023/12/03 01:14:28;;;;;;;24.73;18.65;;;;;;;2.77;100.00;101829.34;5261580;28;20406;-77
2023/12/03 01:17:00;;;;;;;22.42;17.92;;;;;;;2.70;100.00;101817.53;5247280;28;20047;-78
2023/12/03 01:19:31;;;;;;;26.23;18.63;;;;;;;2.75;100.00;101828.53;5266187;28;20028;-76
2023/12/03 01:22:03;;;;;;;25.90;20.40;;;;;;;2.66;100.00;101814.19;5265720;28;20670;-76
2023/12/03 01:24:35;;;;;;;24.17;18.20;;;;;;;2.73;100.00;101823.44;5263231;28;20104;-76
2023/12/03 01:27:07;;;;;;;26.90;19.48;;;;;;;2.73;100.00;101835.50;5266796;28;20031;-76
2023/12/03 01:29:39;;;;;;;25.52;18.77;;;;;;;2.65;100.00;101823.69;5263982;28;20028;-77
2023/12/03 01:32:11;;;;;;;24.60;18.38;;;;;;;2.72;100.00;101828.63;5263940;28;20017;-76
2023/12/03 01:34:43;;;;;;;24.25;17.60;;;;;;;2.74;100.00;101840.63;5244914;28;20044;-76
2023/12/03 01:37:15;;;;;;;25.40;19.05;;;;;;;2.65;100.00;101835.78;5265441;28;20092;-77
2023/12/03 01:39:47;;;;;;;26.75;18.98;;;;;;;2.68;100.00;101841.69;5263710;28;20028;-76
2023/12/03 01:42:20;;;;;;;23.30;17.73;;;;;;;2.72;100.00;101850.19;5265800;28;20035;-77
2023/12/03 01:44:52;;;;;;;24.63;18.05;;;;;;;2.71;100.00;101842.47;5262468;28;20048;-76
2023/12/03 01:47:24;;;;;;;25.83;19.00;;;;;;;2.67;100.00;101840.00;5262000;28;20476;-76
2023/12/03 01:50:04;;;;;;;25.02;17.63;;;;;;;2.73;100.00;101843.25;5247355;28;20425;-76
2023/12/03 01:52:37;;;;;;;25.73;16.95;;;;;;;2.64;100.00;101850.44;5264602;28;20040;-76
2023/12/03 01:55:14;;;;;;;25.17;18.98;;;;;;;2.72;100.00;101846.75;5266175;28;20036;-78
2023/12/03 01:57:46;;;;;;;26.65;18.88;;;;;;;2.61;100.00;101849.72;5264855;28;20024;-77
2023/12/03 02:00:18;;;;;;;28.52;20.13;;;;;;;2.59;100.00;101851.53;5265972;28;20397;-76
2023/12/03 02:02:50;;;;;;;30.23;21.02;;;;;;;2.57;100.00;101855.91;5263587;28;20052;-77
2023/12/03 02:05:23;;;;;;;31.08;20.25;;;;;;;2.55;100.00;101847.38;5264765;28;20040;-78
2023/12/03 02:07:54;;;;;;;30.87;20.90;;;;;;;2.59;100.00;101852.38;5260240;28;20048;-78
2023/12/03 02:10:26;;;;;;;30.20;20.60;;;;;;;2.57;100.00;101843.81;5266424;28;20304;-76
2023/12/03 02:12:59;;;;;;;32.17;22.83;;;;;;;2.56;100.00;101852.47;5270287;28;20048;-77
2023/12/03 02:15:31;;;;;;;32.05;21.95;;;;;;;2.60;100.00;101855.78;5265532;28;20144;-76
2023/12/03 02:18:02;;;;;;;32.47;21.35;;;;;;;2.61;100.00;101862.66;5262718;28;20041;-76
2023/12/03 02:20:34;;;;;;;28.20;21.35;;;;;;;2.57;100.00;101856.75;5264410;28;20037;-78
2023/12/03 02:23:06;;;;;;;29.80;21.25;;;;;;;2.64;100.00;101862.53;5246803;28;20037;-77
2023/12/03 02:25:38;;;;;;;31.95;22.00;;;;;;;2.64;100.00;101867.72;5265695;28;20041;-79
2023/12/03 02:28:10;;;;;;;28.17;21.02;;;;;;;2.64;100.00;101860.81;5264519;28;20725;-76
2023/12/03 02:30:42;;;;;;;31.70;21.40;;;;;;;2.63;100.00;101856.53;5269388;28;20412;-78
2023/12/03 02:33:14;;;;;;;25.05;19.00;;;;;;;2.69;100.00;101860.66;5263632;28;20035;-76
2023/12/03 02:35:47;;;;;;;26.13;19.60;;;;;;;2.71;100.00;101858.84;5262268;28;20021;-76
2023/12/03 02:38:19;;;;;;;27.23;19.30;;;;;;;2.72;100.00;101857.09;5265423;28;20045;-76
2023/12/03 02:40:51;;;;;;;27.80;20.00;;;;;;;2.68;100.00;101849.44;5265524;28;20680;-76
2023/12/03 02:43:22;;;;;;;26.35;18.45;;;;;;;2.71;100.00;101858.00;5268091;28;20375;-76
2023/12/03 02:45:54;;;;;;;25.05;18.30;;;;;;;2.75;100.00;101862.16;5268630;28;20028;-76
2023/12/03 02:48:26;;;;;;;27.35;18.65;;;;;;;2.75;100.00;101869.94;5263781;28;20029;-75
2023/12/03 02:50:58;;;;;;;30.02;19.42;;;;;;;2.77;100.00;101862.97;5268969;28;20024;-76
2023/12/03 02:53:30;;;;;;;26.75;18.15;;;;;;;2.75;100.00;101859.59;5267490;28;20028;-76
2023/12/03 02:56:02;;;;;;;26.60;19.10;;;;;;;2.75;100.00;101857.84;5268554;28;20024;-76
2023/12/03 02:58:35;;;;;;;27.85;19.60;;;;;;;2.68;100.00;101859.78;5268221;28;20485;-76
2023/12/03 03:01:07;;;;;;;27.73;19.30;;;;;;;2.68;100.00;101859.78;5261371;28;20029;-76
2023/12/03 03:03:39;;;;;;;26.80;17.98;;;;;;;2.67;100.00;101863.28;5270484;28;20568;-77
2023/12/03 03:06:11;;;;;;;24.10;17.58;;;;;;;2.56;100.00;101849.03;5266083;28;20047;-76
2023/12/03 03:08:43;;;;;;;25.65;17.60;;;;;;;2.51;100.00;101844.03;5269770;28;20036;-76
2023/12/03 03:11:15;;;;;;;26.20;18.63;;;;;;;2.50;100.00;101842.34;5264165;28;20022;-76
2023/12/03 03:13:47;;;;;;;26.88;19.23;;;;;;;2.48;100.00;101857.06;5238240;28;20045;-76
2023/12/03 03:16:19;;;;;;;26.45;18.55;;;;;;;2.49;100.00;101856.16;5257196;28;20032;-75
2023/12/03 03:18:51;;;;;;;27.25;18.77;;;;;;;2.43;100.00;101856.41;5262575;28;20505;-75
2023/12/03 03:21:23;;;;;;;27.90;18.92;;;;;;;2.39;100.00;101855.66;5269557;28;20513;-76
2023/12/03 03:23:54;;;;;;;24.77;17.52;;;;;;;2.35;100.00;101854.06;5262946;28;20130;-76
2023/12/03 03:26:26;;;;;;;25.50;18.58;;;;;;;2.36;100.00;101868.69;5271538;28;20029;-76
2023/12/03 03:28:58;;;;;;;25.52;18.70;;;;;;;2.31;100.00;101859.38;5264925;28;20036;-77
2023/12/03 03:31:30;;;;;;;27.27;18.55;;;;;;;2.27;100.00;101860.38;5270279;28;20029;-75
2023/12/03 03:34:03;;;;;;;29.67;19.45;;;;;;;2.25;100.00;101854.44;5269524;28;20032;-76
2023/12/03 03:36:35;;;;;;;27.83;18.95;;;;;;;2.27;100.00;101855.22;5273452;28;20043;-76
2023/12/03 03:39:07;;;;;;;27.27;18.60;;;;;;;2.23;100.00;101861.38;5251133;28;20443;-76
2023/12/03 03:41:38;;;;;;;27.35;19.08;;;;;;;2.24;100.00;101858.78;5270624;28;20035;-76
2023/12/03 03:44:10;;;;;;;26.67;18.77;;;;;;;2.21;100.00;101863.19;5271985;28;20033;-75
2023/12/03 03:46:42;;;;;;;26.77;19.23;;;;;;;2.21;100.00;101870.94;5271443;28;20034;-75
2023/12/03 03:49:14;;;;;;;25.90;17.83;;;;;;;2.13;100.00;101855.69;5271608;28;20027;-76
2023/12/03 03:51:46;;;;;;;22.85;16.77;;;;;;;2.15;100.00;101867.66;5272409;28;20029;-78
2023/12/03 03:54:18;;;;;;;26.73;19.75;;;;;;;2.11;100.00;101868.66;5251459;28;20506;-80
2023/12/03 03:56:50;;;;;;;29.50;19.27;;;;;;;2.06;100.00;101873.13;5252116;28;20108;-76
2023/12/03 03:59:22;;;;;;;27.50;18.88;;;;;;;2.06;100.00;101877.47;5268788;28;20123;-76
2023/12/03 04:01:54;;;;;;;26.95;18.67;;;;;;;2.00;100.00;101875.06;5271164;28;20051;-77
2023/12/03 04:04:26;;;;;;;29.85;19.27;;;;;;;2.03;100.00;101891.31;5267597;28;20028;-77
2023/12/03 04:06:57;;;;;;;25.83;18.95;;;;;;;1.99;100.00;101881.16;5265799;28;20036;-75
2023/12/03 04:09:30;;;;;;;27.45;17.88;;;;;;;1.97;100.00;101881.22;5268500;28;20036;-76
2023/12/03 04:12:03;;;;;;;26.58;17.85;;;;;;;1.97;100.00;101877.75;5270579;28;20031;-75
2023/12/03 04:14:35;;;;;;;26.60;17.53;;;;;;;1.94;100.00;101876.97;5270108;28;20041;-80
2023/12/03 04:17:08;;;;;;;26.58;17.90;;;;;;;1.89;100.00;101886.59;5251633;28;20730;-77
2023/12/03 04:19:40;;;;;;;28.30;18.90;;;;;;;1.86;100.00;101884.13;5269501;28;20029;-76
2023/12/03 04:22:12;;;;;;;25.85;17.02;;;;;;;1.84;100.00;101888.47;5271974;28;20025;-76
2023/12/03 04:24:46;;;;;;;23.15;15.68;;;;;;;1.81;100.00;101887.72;5270576;28;20368;-76
2023/12/03 04:27:17;;;;;;;23.55;17.77;;;;;;;1.74;100.00;101883.66;5250337;28;20048;-76
2023/12/03 04:29:49;;;;;;;27.95;17.33;;;;;;;1.75;100.00;101890.53;5265957;28;20097;-78
2023/12/03 04:32:21;;;;;;;31.73;17.20;;;;;;;1.71;100.00;101887.19;5269429;28;20132;-76
2023/12/03 04:34:53;;;;;;;28.83;18.55;;;;;;;1.63;100.00;101871.06;5267736;28;20039;-76
2023/12/03 04:37:25;;;;;;;27.05;17.90;;;;;;;1.64;100.00;101881.38;5267857;28;20033;-78
2023/12/03 04:39:57;;;;;;;24.88;17.35;;;;;;;1.58;100.00;101889.28;5270993;28;20139;-75
2023/12/03 04:42:29;;;;;;;25.70;17.77;;;;;;;1.59;100.00;101893.59;5269754;28;20041;-76
2023/12/03 04:45:01;;;;;;;28.25;17.90;;;;;;;1.46;100.00;101881.91;5249639;28;20037;-75
2023/12/03 04:47:33;;;;;;;26.63;18.02;;;;;;;1.51;100.00;101899.84;5267732;28;20043;-75
2023/12/03 04:50:05;;;;;;;28.73;18.95;;;;;;;1.50;100.00;101900.75;5270195;28;20104;-76
2023/12/03 04:52:37;;;;;;;26.80;17.08;;;;;;;1.51;100.00;101895.53;5265259;28;20037;-78
2023/12/03 04:55:09;;;;;;;24.65;18.15;;;;;;;1.45;100.00;101901.75;5268415;28;20107;-76
2023/12/03 04:57:41;;;;;;;29.75;18.27;;;;;;;1.35;100.00;101886.56;5267939;28;20027;-76
2023/12/03 05:00:13;;;;;;;26.60;17.52;;;;;;;1.35;100.00;101887.41;5265735;28;20462;-76
2023/12/03 05:02:45;;;;;;;29.80;18.75;;;;;;;1.37;100.00;101895.13;5262240;28;20052;-77
2023/12/03 05:05:17;;;;;;;30.75;19.05;;;;;;;1.34;100.00;101898.63;5247732;28;20151;-77
2023/12/03 05:07:49;;;;;;;28.95;18.92;;;;;;;1.34;100.00;101902.94;5263583;28;20024;-77
2023/12/03 05:10:21;;;;;;;31.25;20.33;;;;;;;1.28;100.00;101901.38;5267586;28;20778;-76
2023/12/03 05:12:52;;;;;;;34.30;21.25;;;;;;;1.26;100.00;101904.91;5264898;28;20465;-76
2023/12/03 05:15:24;;;;;;;29.50;19.33;;;;;;;1.28;100.00;101913.44;5266767;28;20040;-76
2023/12/03 05:17:56;;;;;;;31.15;20.80;;;;;;;1.23;100.00;101905.00;5263989;28;20059;-76
2023/12/03 05:20:28;;;;;;;33.17;21.75;;;;;;;1.21;100.00;101903.31;5269548;28;20031;-76
2023/12/03 05:23:00;;;;;;;33.60;21.15;;;;;;;1.23;100.00;101908.41;5267080;28;20036;-76
2023/12/03 05:25:32;;;;;;;33.63;22.20;;;;;;;1.20;100.00;101906.75;5265437;28;20338;-77
2023/12/03 05:28:04;;;;;;;36.30;22.73;;;;;;;1.21;100.00;101915.34;5267307;28;20512;-77
2023/12/03 05:30:36;;;;;;;36.15;23.00;;;;;;;1.15;100.00;101908.63;5264495;28;20064;-76
2023/12/03 05:33:08;;;;;;;33.45;21.67;;;;;;;1.11;100.00;101898.47;5265440;28;20027;-76
2023/12/03 05:35:40;;;;;;;38.88;23.80;;;;;;;1.08;100.00;101904.53;5265697;28;20028;-76
2023/12/03 05:38:12;;;;;;;35.65;22.77;;;;;;;1.07;100.00;101902.84;5264013;28;20037;-77
2023/12/03 05:40:44;;;;;;;38.03;24.08;;;;;;;1.07;100.00;101927.81;5267524;28;20024;-76
2023/12/03 05:43:16;;;;;;;35.95;22.80;;;;;;;1.05;100.00;101914.94;5267279;28;20570;-79
2023/12/03 05:45:48;;;;;;;37.72;22.00;;;;;;;1.01;100.00;101909.91;5264051;28;20505;-77
2023/12/03 05:48:21;;;;;;;33.58;21.15;;;;;;;0.97;100.00;101901.41;5263486;28;20032;-76
2023/12/03 05:50:52;;;;;;;36.10;21.45;;;;;;;1.06;100.00;101916.66;5264962;28;20029;-77
2023/12/03 05:53:24;;;;;;;33.25;20.83;;;;;;;1.01;100.00;101915.06;5260351;28;20410;-76
2023/12/03 05:55:56;;;;;;;36.45;21.42;;;;;;;0.89;100.00;101898.19;5268687;28;20028;-76
2023/12/03 05:58:28;;;;;;;30.73;19.98;;;;;;;1.01;100.00;101925.41;5263853;28;20047;-76
2023/12/03 06:01:00;;;;;;;33.00;21.02;;;;;;;0.93;100.00;101921.28;5270674;28;20025;-76
2023/12/03 06:03:32;;;;;;;32.67;20.08;;;;;;;0.95;100.00;101921.25;5260294;28;20052;-76
2023/12/03 06:06:04;;;;;;;31.35;19.27;;;;;;;0.88;100.00;101925.75;5264949;28;20043;-77
2023/12/03 06:08:36;;;;;;;32.38;20.60;;;;;;;0.90;100.00;101925.69;5267192;28;20417;-76
2023/12/03 06:11:08;;;;;;;33.25;20.50;;;;;;;0.90;100.00;101933.44;5242756;28;20037;-77
2023/12/03 06:13:40;;;;;;;31.70;20.25;;;;;;;0.85;100.00;101924.97;5258245;28;20029;-76
2023/12/03 06:16:12;;;;;;;34.78;21.02;;;;;;;0.84;100.00;101934.44;5261609;28;20044;-77
2023/12/03 06:18:44;;;;;;;31.02;19.65;;;;;;;0.89;100.00;101931.75;5262323;28;20024;-76
2023/12/03 06:21:16;;;;;;;32.28;19.45;;;;;;;0.90;100.00;101936.00;5264343;28;20028;-77
2023/12/03 06:23:48;;;;;;;31.42;18.85;;;;;;;0.83;100.00;101934.47;5272494;28;20037;-76
2023/12/03 06:26:20;;;;;;;33.75;20.27;;;;;;;0.82;100.00;101946.53;5264438;28;20043;-76
2023/12/03 06:28:52;;;;;;;31.88;19.67;;;;;;;0.73;100.00;101933.88;5261812;28;20024;-76
2023/12/03 06:31:24;;;;;;;33.85;19.35;;;;;;;0.80;100.00;101937.16;5270531;28;20036;-76
2023/12/03 06:33:56;;;;;;;33.20;20.20;;;;;;;0.80;100.00;101927.69;5271248;28;20032;-78
2023/12/03 06:36:28;;;;;;;34.08;21.70;;;;;;;0.77;100.00;101924.34;5270514;28;20032;-76
2023/12/03 06:39:00;;;;;;;34.05;20.60;;;;;;;0.85;100.00;101935.28;5267964;28;20024;-77
2023/12/03 06:41:31;;;;;;;33.67;20.23;;;;;;;0.83;100.00;101926.72;5267662;28;20032;-76
2023/12/03 06:44:04;;;;;;;30.45;19.00;;;;;;;0.78;100.00;101923.44;5268477;28;20024;-76
2023/12/03 06:46:40;;;;;;;30.77;19.13;;;;;;;0.90;100.00;101928.25;5250303;28;20429;-80
2023/12/03 06:49:12;;;;;;;32.72;18.80;;;;;;;0.80;100.00;101917.38;5249082;28;20045;-76
2023/12/03 06:51:44;;;;;;;32.03;20.27;;;;;;;0.62;100.00;101895.47;5250280;28;20045;-79
2023/12/03 06:54:16;;;;;;;32.40;19.20;;;;;;;0.78;100.00;101933.75;5272103;28;21126;-77
2023/12/03 06:56:48;;;;;;;29.50;18.63;;;;;;;0.76;100.00;101918.34;5269107;28;20082;-77
2023/12/03 06:59:19;;;;;;;32.60;19.67;;;;;;;0.80;100.00;101926.84;5267225;28;20060;-77
2023/12/03 07:01:51;;;;;;;31.45;19.88;;;;;;;0.78;100.00;101926.88;5268936;28;20036;-80
2023/12/03 07:04:23;;;;;;;33.28;19.65;;;;;;;0.79;100.00;101919.97;5267922;28;20107;-76
2023/12/03 07:06:55;;;;;;;29.52;18.05;;;;;;;0.73;100.00;101929.56;5269128;28;20024;-77
2023/12/03 07:09:27;;;;;;;31.05;18.70;;;;;;;0.73;100.00;101936.47;5266584;28;20029;-78
2023/12/03 07:11:59;;;;;;;30.90;19.45;;;;;;;0.65;100.00;101915.19;5271368;28;20028;-76
2023/12/03 07:14:31;;;;;;;34.40;20.40;;;;;;;0.72;100.00;101929.63;5265925;28;20029;-78
2023/12/03 07:17:03;;;;;;;33.05;18.88;;;;;;;0.71;100.00;101936.50;5270240;28;20028;-76
2023/12/03 07:19:35;;;;;;;32.38;20.73;;;;;;;0.72;100.00;101933.03;5268432;28;20036;-76
2023/12/03 07:22:07;;;;;;;32.05;18.92;;;;;;;0.72;100.00;101937.38;5271214;28;21400;-76
2023/12/03 07:24:39;;;;;;;30.45;17.90;;;;;;;0.70;100.00;101942.53;5271438;28;20103;-78
2023/12/03 07:27:11;;;;;;;27.60;17.67;;;;;;;0.70;100.00;101939.97;5265963;28;20025;-77
2023/12/03 07:29:43;;;;;;;30.45;18.17;;;;;;;0.72;100.00;101947.69;5265537;28;20134;-80
2023/12/03 07:32:15;;;;;;;30.45;19.23;;;;;;;0.69;100.00;101946.00;5267061;28;20021;-76
2023/12/03 07:34:47;;;;;;;31.83;19.02;;;;;;;0.68;100.00;101952.06;5268119;28;20420;-80
2023/12/03 07:37:19;;;;;;;27.80;17.88;;;;;;;0.67;100.00;101946.94;5268169;28;20539;-78
2023/12/03 07:39:51;;;;;;;30.98;18.25;;;;;;;0.64;100.00;101947.00;5269071;28;20055;-76
2023/12/03 07:42:25;;;;;;;29.77;17.73;;;;;;;0.71;100.00;101946.81;5265529;28;20028;-77
2023/12/03 07:44:57;;;;;;;25.42;16.92;;;;;;;0.65;100.00;101944.41;5265610;28;20036;-77
2023/12/03 07:47:29;;;;;;;30.35;18.38;;;;;;;0.69;100.00;101950.34;5266715;28;20512;-76
2023/12/03 07:50:01;;;;;;;29.77;18.50;;;;;;;0.67;100.00;101947.78;5267722;28;20021;-76
2023/12/03 07:52:33;;;;;;;37.00;19.95;;;;;;;0.68;100.00;101946.91;5267518;28;20493;-76
2023/12/03 07:55:06;;;;;;;28.90;17.70;;;;;;;0.67;100.00;101944.34;5265694;28;20040;-77
2023/12/03 07:57:38;;;;;;;32.22;18.95;;;;;;;0.69;100.00;101946.00;5264350;28;20035;-76
2023/12/03 08:00:11;;;;;;;27.33;17.50;;;;;;;0.69;100.00;101953.75;5265786;28;20035;-78
2023/12/03 08:02:42;;;;;;;29.77;18.77;;;;;;;0.70;100.00;101952.00;5267338;28;20509;-77
2023/12/03 08:05:14;;;;;;;30.55;18.70;;;;;;;0.70;100.00;101958.00;5248557;28;20041;-76
2023/12/03 08:07:46;;;;;;;29.63;18.63;;;;;;;0.66;100.00;101952.97;5263891;28;20035;-79
2023/12/03 08:10:18;;;;;;;30.88;17.35;;;;;;;0.65;100.00;101965.03;5267745;28;20046;-78
2023/12/03 08:12:51;;;;;;;30.10;18.42;;;;;;;0.67;100.00;101968.41;5269180;28;20474;-78
2023/12/03 08:15:22;;;;;;;29.30;18.00;;;;;;;0.69;100.00;101968.38;5264600;28;20063;-79
2023/12/03 08:17:54;;;;;;;29.73;17.83;;;;;;;0.66;100.00;101966.72;5264625;28;20028;-78
2023/12/03 08:20:26;;;;;;;32.60;18.77;;;;;;;0.68;100.00;101970.13;5243250;28;20049;-80
2023/12/03 08:22:58;;;;;;;29.95;17.67;;;;;;;0.72;100.00;101976.88;5262317;28;20036;-79
2023/12/03 08:25:30;;;;;;;27.42;18.15;;;;;;;0.74;100.00;101971.69;5265735;28;20087;-80
2023/12/03 08:28:02;;;;;;;27.65;18.10;;;;;;;0.76;100.00;101969.06;5264791;28;20047;-78
2023/12/03 08:30:34;;;;;;;27.40;17.52;;;;;;;0.84;100.00;101977.47;5264334;28;20032;-80
2023/12/03 08:33:06;;;;;;;31.77;18.23;;;;;;;0.88;100.00;101973.91;5263065;28;20035;-78
2023/12/03 08:35:38;;;;;;;31.85;19.70;;;;;;;0.87;100.00;101974.78;5266458;28;20039;-78
2023/12/03 08:38:12;;;;;;;29.52;18.13;;;;;;;0.88;100.00;101979.91;5265525;28;20585;-79
2023/12/03 08:40:44;;;;;;;29.10;18.02;;;;;;;0.94;100.00;101984.06;5263985;28;20615;-78
2023/12/03 08:43:16;;;;;;;31.35;18.10;;;;;;;0.91;100.00;101974.69;5264644;28;20037;-78
2023/12/03 08:45:48;;;;;;;28.33;18.52;;;;;;;0.99;100.00;101978.78;5265491;28;20034;-79
2023/12/03 08:48:20;;;;;;;28.40;17.95;;;;;;;1.04;100.00;101979.50;5259202;28;20029;-79
2023/12/03 08:50:52;;;;;;;27.20;17.40;;;;;;;1.00;100.00;101973.59;5264511;28;20024;-79
2023/12/03 08:53:24;;;;;;;31.27;18.80;;;;;;;1.09;100.00;101983.63;5259788;28;20475;-79
2023/12/03 08:55:58;;;;;;;29.48;16.98;;;;;;;1.19;100.00;101986.84;5258125;28;20051;-79
2023/12/03 08:58:30;;;;;;;29.42;18.25;;;;;;;1.21;100.00;101985.91;5264004;28;20028;-79
2023/12/03 09:01:02;;;;;;;28.35;17.50;;;;;;;1.24;100.00;101997.88;5262367;28;20043;-79
2023/12/03 09:03:34;;;;;;;27.02;17.63;;;;;;;1.25;100.00;101999.59;5262937;28;20044;-79
2023/12/03 09:06:08;;;;;;;25.27;17.10;;;;;;;1.24;100.00;101991.88;5258019;28;20481;-75
2023/12/03 09:08:40;;;;;;;25.45;17.02;;;;;;;1.29;100.00;101997.72;5253140;28;20041;-79
2023/12/03 09:11:12;;;;;;;26.77;17.02;;;;;;;1.28;100.00;102002.06;5259974;28;20033;-79
2023/12/03 09:13:44;;;;;;;25.17;15.85;;;;;;;1.26;100.00;101997.84;5258944;28;20335;-79
2023/12/03 09:16:16;;;;;;;27.42;16.92;;;;;;;1.28;100.00;101998.63;5261260;28;20033;-79
2023/12/03 09:18:47;;;;;;;28.42;16.92;;;;;;;1.26;100.00;102003.84;5258374;28;20021;-78
2023/12/03 09:21:19;;;;;;;27.67;17.38;;;;;;;1.27;100.00;102002.13;5259715;28;20037;-79
2023/12/03 09:23:51;;;;;;;28.95;17.83;;;;;;;1.25;100.00;101994.41;5259009;28;20032;-79
2023/12/03 09:26:23;;;;;;;24.90;16.45;;;;;;;1.31;100.00;102006.31;5257368;28;20038;-77
2023/12/03 09:28:56;;;;;;;25.98;17.45;;;;;;;1.28;100.00;101993.47;5258032;28;20478;-77
2023/12/03 09:31:28;;;;;;;25.83;17.30;;;;;;;1.35;100.00;102001.00;5259667;28;20036;-79
2023/12/03 09:34:00;;;;;;;24.77;16.67;;;;;;;1.35;100.00;101998.41;5237610;28;20037;-79
2023/12/03 09:36:32;;;;;;;25.63;16.35;;;;;;;1.39;100.00;101992.28;5260215;28;20401;-79
2023/12/03 09:39:04;;;;;;;23.90;16.33;;;;;;;1.42;100.00;101989.63;5238652;28;20040;-78
2023/12/03 09:41:48;;;;;;;27.40;16.90;;;;;;;1.63;100.00;101995.91;5238820;28;20052;-79
2023/12/03 09:44:21;;;;;;;;;;;;;;;2.09;100.00;101994.53;5261393;28;20033;-79
2023/12/03 09:46:54;;;;;;;25.83;15.55;;;;;;;1.68;100.00;101986.28;5254251;28;19921;-79
2023/12/03 09:49:29;;;;;;;24.85;15.73;;;;;;;1.76;100.00;101990.38;5259124;28;20402;-79
2023/12/03 09:52:01;;;;;;;22.60;15.13;;;;;;;1.70;100.00;101991.41;5261518;28;20032;-79
2023/12/03 09:54:33;;;;;;;23.80;15.57;;;;;;;1.69;100.00;101995.72;5257961;28;20033;-79
2023/12/03 09:57:07;;;;;;;24.73;16.05;;;;;;;1.74;100.00;101987.00;5257005;28;20041;-79
2023/12/03 09:59:44;;;;;;;25.90;16.67;;;;;;;1.78;100.00;101986.00;5260106;28;20032;-78
2023/12/03 10:02:19;;;;;;;25.45;16.65;;;;;;;1.78;100.00;101981.72;5260222;28;20435;-79
2023/12/03 10:04:51;;;;;;;24.55;16.60;;;;;;;1.81;100.00;101984.16;5256317;28;20396;-78
2023/12/03 10:07:26;;;;;;;24.00;15.32;;;;;;;1.81;100.00;101986.75;5258272;28;20048;-79
2023/12/03 10:09:59;;;;;;;24.10;16.33;;;;;;;1.75;100.00;101963.72;5258329;28;20032;-79
2023/12/03 10:12:43;;;;;;;21.90;15.10;;;;;;;2.02;100.00;101977.53;5255632;28;20390;-79
2023/12/03 10:15:15;;;;;;;21.90;15.30;;;;;;;1.99;100.00;101974.19;5262351;28;20028;-79
2023/12/03 10:17:49;;;;;;;22.13;14.52;;;;;;;1.98;100.00;101959.59;5261894;28;20066;-78
2023/12/03 10:20:28;;;;;;;25.27;15.80;;;;;;;2.07;100.00;101972.19;5256467;28;20044;-79
2023/12/03 10:23:02;;;;;;;23.55;15.48;;;;;;;1.96;100.00;101959.59;5254809;28;20032;-77
2023/12/03 10:25:35;;;;;;;27.85;15.18;;;;;;;2.02;100.00;101956.84;5256691;28;20034;-79
2023/12/03 10:28:08;;;;;;;22.77;15.75;;;;;;;2.12;100.00;101966.00;5255466;28;20049;-77
2023/12/03 10:30:41;;;;;;;23.38;15.07;;;;;;;2.18;100.00;101975.31;5256648;28;20059;-79
2023/12/03 10:33:15;;;;;;;24.23;15.13;;;;;;;2.24;100.00;101961.34;5238549;28;20033;-79
2023/12/03 10:35:47;;;;;;;21.58;15.18;;;;;;;2.25;100.00;101958.69;5260238;28;20037;-79
2023/12/03 10:38:19;;;;;;;21.63;14.73;;;;;;;2.32;100.00;101959.34;5237987;28;20039;-78
2023/12/03 10:40:51;;;;;;;22.98;15.50;;;;;;;2.39;100.00;101950.50;5258507;28;20492;-78
2023/12/03 10:43:23;;;;;;;19.92;13.20;;;;;;;2.44;100.00;101946.00;5236165;28;20041;-78
2023/12/03 10:45:55;;;;;;;20.92;14.68;;;;;;;2.51;100.00;101937.16;5239117;28;20041;-78
2023/12/03 10:48:30;;;;;;;22.20;14.82;;;;;;;2.56;100.00;101935.25;5260042;28;20029;-78
2023/12/03 10:51:04;;;;;;;18.60;13.35;;;;;;;2.69;100.00;101938.28;5258084;28;20032;-79
2023/12/03 10:53:37;;;;;;;21.65;14.13;;;;;;;2.73;100.00;101942.47;5260099;28;20378;-79
2023/12/03 10:56:09;;;;;;;18.65;13.32;;;;;;;2.83;100.00;101936.03;5236487;28;20502;-78
2023/12/03 10:58:42;;;;;;;20.20;14.02;;;;;;;2.86;100.00;101924.75;5256323;28;20040;-79
2023/12/03 11:01:19;;;;;;;19.77;12.93;;;;;;;3.15;100.00;101932.31;5260024;28;20032;-77
2023/12/03 11:04:06;;;;;;;20.48;13.80;;;;;;;3.29;100.00;101924.03;5256503;28;20048;-79
2023/12/03 11:06:40;;;;;;;19.95;13.10;;;;;;;3.31;100.00;101918.81;5262445;28;20029;-79
2023/12/03 11:09:12;;;;;;;18.42;13.18;;;;;;;3.38;100.00;101921.09;5261468;28;20036;-78
2023/12/03 11:11:45;;;;;;;19.77;12.93;;;;;;;3.48;100.00;101908.63;5259741;28;20473;-79
2023/12/03 11:14:19;;;;;;;21.08;13.57;;;;;;;3.56;100.00;101919.59;5263235;28;20048;-79
2023/12/03 11:17:14;;;;;;;17.85;11.50;;;;;;;3.84;100.00;101903.78;5244853;28;20044;-79
2023/12/03 11:19:50;;;;;;;16.80;12.65;;;;;;;3.78;100.00;101910.94;5259468;28;20037;-80
2023/12/03 11:22:33;;;;;;;18.40;12.15;;;;;;;3.75;100.00;101900.69;5243926;28;20048;-78
2023/12/03 11:25:11;;;;;;;17.63;12.77;;;;;;;3.77;100.00;101901.50;5264900;28;20036;-78
2023/12/03 11:27:45;;;;;;;16.92;12.13;;;;;;;3.79;100.00;101899.66;5260956;28;20044;-78
2023/12/03 11:30:37;;;;;;;16.40;11.93;;;;;;;3.97;100.00;101880.78;5264631;28;20036;-79
2023/12/03 11:33:13;;;;;;;19.38;13.05;;;;;;;3.89;100.00;101877.66;5262761;28;20036;-80